Time;durP1;ratioP1;P1;durP2;ratioP2;P2;SDS_P1;SDS_P2;PMS_P1;PMS_P2;Temp;Humidity;BMP_temperature;BMP_pressure;BME280_temperature;BME280_humidity;BME280_pressure;Samples;Min_cycle;Max_cycle;Signal;HPM_P1;HPM_P2
2023/09/29 00:00:41;;;;;;;12.57;3.95;;;20.20;99.50;;;;;;5015261;28;20104;-67
2023/09/29 00:03:08;;;;;;;16.85;4.35;;;20.20;99.50;;;;;;5014967;28;20370;-68
2023/09/29 00:05:34;;;;;;;14.85;4.20;;;20.20;99.40;;;;;;5014977;28;20045;-67
2023/09/29 00:08:00;;;;;;;14.85;4.03;;;20.20;99.40;;;;;;5015290;28;20434;-68
2023/09/29 00:10:25;;;;;;;14.18;4.30;;;20.20;99.30;;;;;;5014991;28;20036;-67
2023/09/29 00:12:51;;;;;;;18.90;4.28;;;20.20;99.30;;;;;;5014827;28;20026;-67
2023/09/29 00:15:18;;;;;;;15.05;4.13;;;20.20;99.30;;;;;;5014860;28;20034;-67
2023/09/29 00:17:44;;;;;;;14.65;4.00;;;20.20;99.20;;;;;;5015123;28;20022;-71
2023/09/29 00:20:23;;;;;;;14.15;4.88;;;20.20;99.50;;;;;;5014801;28;20468;-67
2023/09/29 00:22:49;;;;;;;15.82;4.40;;;20.20;99.10;;;;;;5013605;28;20478;-68
2023/09/29 00:25:15;;;;;;;13.88;3.53;;;20.20;99.10;;;;;;5014780;28;20483;-68
2023/09/29 00:27:41;;;;;;;12.55;3.85;;;20.20;99.10;;;;;;5014540;28;20031;-67
2023/09/29 00:30:09;;;;;;;11.80;3.63;;;20.20;99.00;;;;;;5014541;28;20018;-70
2023/09/29 00:32:35;;;;;;;16.67;4.25;;;20.10;99.00;;;;;;5014663;28;20065;-68
2023/09/29 00:35:00;;;;;;;11.23;4.05;;;20.10;99.00;;;;;;5014387;28;20037;-67
2023/09/29 00:37:26;;;;;;;11.65;3.90;;;20.10;98.90;;;;;;5014576;28;20029;-67
2023/09/29 00:39:52;;;;;;;15.23;3.90;;;20.20;98.90;;;;;;5014510;28;20391;-68
2023/09/29 00:42:18;;;;;;;12.05;3.72;;;20.20;98.90;;;;;;5014019;28;20368;-67
2023/09/29 00:44:45;;;;;;;11.93;4.32;;;20.10;98.80;;;;;;5014268;28;20022;-68
2023/09/29 00:47:11;;;;;;;11.50;3.53;;;20.10;98.70;;;;;;5014410;28;20022;-67
2023/09/29 00:49:37;;;;;;;13.32;4.18;;;20.20;98.70;;;;;;5014349;28;20026;-68
2023/09/29 00:52:04;;;;;;;13.07;3.88;;;20.20;98.70;;;;;;5013162;28;20054;-67
2023/09/29 00:54:32;;;;;;;10.95;3.50;;;20.20;98.60;;;;;;5014136;28;20018;-68
2023/09/29 00:56:59;;;;;;;12.80;3.97;;;20.20;98.70;;;;;;5014050;28;20034;-67
2023/09/29 00:59:26;;;;;;;11.73;4.35;;;20.20;98.60;;;;;;5013973;28;20080;-68
2023/09/29 01:01:52;;;;;;;10.18;3.60;;;20.20;98.60;;;;;;5014125;28;20083;-72
2023/09/29 01:04:18;;;;;;;10.80;3.22;;;20.20;98.60;;;;;;5014164;28;20457;-73
2023/09/29 01:06:45;;;;;;;10.10;3.42;;;20.20;98.60;;;;;;5013922;28;20538;-68
2023/09/29 01:09:12;;;;;;;13.02;4.00;;;20.20;98.70;;;;;;5014048;28;20064;-67
2023/09/29 01:11:42;;;;;;;8.68;2.83;;;20.20;98.70;;;;;;5013700;28;20459;-67
2023/09/29 01:14:09;;;;;;;10.35;3.13;;;20.20;98.70;;;;;;5013941;28;20026;-68
2023/09/29 01:16:36;;;;;;;11.93;3.70;;;20.20;98.70;;;;;;5014067;28;20037;-67
2023/09/29 01:19:02;;;;;;;14.18;4.00;;;20.20;98.80;;;;;;5013884;28;20025;-68
2023/09/29 01:21:30;;;;;;;9.85;3.25;;;20.10;98.80;;;;;;5013548;28;20022;-68
2023/09/29 01:23:56;;;;;;;7.97;3.30;;;20.20;98.80;;;;;;5013756;28;20491;-68
2023/09/29 01:26:21;;;;;;;14.43;4.00;;;20.20;98.90;;;;;;5013234;28;20049;-71
2023/09/29 01:28:50;;;;;;;8.73;3.10;;;20.20;98.90;;;;;;5013418;28;20033;-68
2023/09/29 01:31:15;;;;;;;7.63;3.28;;;20.20;99.00;;;;;;5012232;28;20068;-67
2023/09/29 01:33:41;;;;;;;10.25;3.63;;;20.20;99.00;;;;;;5012615;28;20417;-67
2023/09/29 01:36:07;;;;;;;10.70;2.92;;;20.20;99.00;;;;;;5013326;28;20133;-67
2023/09/29 01:38:32;;;;;;;10.60;3.03;;;20.10;99.10;;;;;;5013603;28;20060;-67
2023/09/29 01:40:58;;;;;;;9.63;3.15;;;20.10;99.10;;;;;;5013219;28;20061;-67
2023/09/29 01:43:23;;;;;;;7.50;2.97;;;20.10;99.20;;;;;;5013536;28;20025;-67
2023/09/29 01:45:49;;;;;;;6.38;2.60;;;20.10;99.20;;;;;;5013711;28;20497;-68
2023/09/29 01:48:15;;;;;;;6.57;2.35;;;20.20;99.30;;;;;;5013566;28;20474;-67
2023/09/29 01:50:42;;;;;;;9.93;3.28;;;20.20;99.30;;;;;;5013423;28;20029;-67
2023/09/29 01:53:07;;;;;;;12.60;4.18;;;20.10;99.30;;;;;;5013354;28;20029;-71
2023/09/29 01:55:33;;;;;;;6.78;3.20;;;20.20;99.50;;;;;;5012968;28;20038;-67
2023/09/29 01:57:59;;;;;;;13.70;3.75;;;20.20;99.50;;;;;;5013450;28;20145;-69
2023/09/29 02:00:24;;;;;;;6.70;3.20;;;20.20;99.50;;;;;;5013382;28;20156;-67
2023/09/29 02:02:52;;;;;;;8.02;3.08;;;20.20;99.60;;;;;;5013301;28;20037;-68
2023/09/29 02:05:18;;;;;;;9.13;4.07;;;20.20;99.60;;;;;;5013215;28;20124;-67
2023/09/29 02:07:44;;;;;;;7.70;3.10;;;20.20;99.70;;;;;;5013184;28;20173;-67
2023/09/29 02:10:10;;;;;;;6.40;2.83;;;20.20;99.80;;;;;;5013096;28;20026;-67
2023/09/29 02:12:46;;;;;;;9.32;3.15;;;20.20;99.80;;;;;;5014660;28;20486;-68
2023/09/29 02:15:16;;;;;;;9.82;3.13;;;20.20;99.90;;;;;;5017288;28;20029;-68
2023/09/29 02:17:42;;;;;;;9.30;3.33;;;20.20;99.90;;;;;;5017130;28;20014;-67
2023/09/29 02:20:15;;;;;;;5.93;2.85;;;20.20;99.90;;;;;;5017352;28;20030;-67
2023/09/29 02:22:41;;;;;;;8.85;2.80;;;20.20;99.90;;;;;;5016719;28;20032;-68
2023/09/29 02:25:10;;;;;;;7.85;2.63;;;20.20;99.90;;;;;;5017112;28;20026;-67
2023/09/29 02:27:36;;;;;;;11.18;3.00;;;20.10;99.90;;;;;;5016840;28;20028;-68
2023/09/29 02:30:03;;;;;;;9.38;2.65;;;20.20;99.90;;;;;;5017134;28;20068;-67
2023/09/29 02:32:28;;;;;;;10.32;3.17;;;20.20;99.90;;;;;;5016631;28;20026;-67
2023/09/29 02:34:55;;;;;;;7.05;2.72;;;20.20;99.90;;;;;;5016935;28;20068;-67
2023/09/29 02:37:21;;;;;;;11.30;4.03;;;20.20;99.90;;;;;;5016552;28;20029;-68
2023/09/29 02:39:47;;;;;;;6.20;2.75;;;20.20;99.90;;;;;;5016865;28;20490;-68
2023/09/29 02:42:12;;;;;;;6.90;2.40;;;20.20;99.90;;;;;;5016820;28;20018;-67
2023/09/29 02:44:39;;;;;;;8.57;2.60;;;20.20;99.90;;;;;;5016706;28;20549;-67
2023/09/29 02:47:05;;;;;;;6.68;2.88;;;20.20;99.90;;;;;;5016725;28;20025;-67
2023/09/29 02:49:33;;;;;;;9.38;3.65;;;20.20;99.90;;;;;;5016466;28;20440;-67
2023/09/29 02:52:04;;;;;;;9.50;3.22;;;20.20;99.90;;;;;;5016140;28;20021;-67
2023/09/29 02:54:30;;;;;;;11.05;3.28;;;20.20;99.90;;;;;;5016513;28;20104;-67
2023/09/29 02:56:56;;;;;;;7.63;2.78;;;20.20;99.90;;;;;;5016486;28;20446;-67
2023/09/29 02:59:24;;;;;;;8.05;2.42;;;20.20;99.90;;;;;;5016456;28;20018;-67
2023/09/29 03:01:50;;;;;;;7.80;2.60;;;20.20;99.90;;;;;;5016439;28;20491;-67
2023/09/29 03:04:15;;;;;;;8.45;2.85;;;20.20;99.90;;;;;;5015931;28;20053;-67
2023/09/29 03:06:41;;;;;;;8.23;3.20;;;20.20;99.90;;;;;;5014853;28;20073;-67
2023/09/29 03:09:10;;;;;;;7.63;2.75;;;20.10;99.90;;;;;;5015014;28;20431;-67
2023/09/29 03:11:39;;;;;;;6.63;2.67;;;20.20;99.90;;;;;;5014904;28;20018;-67
2023/09/29 03:14:06;;;;;;;9.02;2.83;;;20.20;99.90;;;;;;5013694;28;20122;-67
2023/09/29 03:16:34;;;;;;;7.90;2.75;;;20.10;99.90;;;;;;5014879;28;20445;-71
2023/09/29 03:19:00;;;;;;;8.02;3.22;;;20.20;99.90;;;;;;5015071;28;20101;-68
2023/09/29 03:21:25;;;;;;;5.78;2.42;;;20.20;99.90;;;;;;5014764;28;20077;-67
2023/09/29 03:23:51;;;;;;;4.85;2.45;;;20.20;99.90;;;;;;5014334;28;20033;-69
2023/09/29 03:26:23;;;;;;;5.32;2.13;;;20.20;99.90;;;;;;5015520;28;20053;-67
2023/09/29 03:28:54;;;;;;;;;;;20.20;99.90;;;;;;5015160;28;20434;-68
2023/09/29 03:31:22;;;;;;;5.80;2.40;;;20.20;99.90;;;;;;5014726;28;20397;-67
2023/09/29 03:33:48;;;;;;;6.72;2.55;;;20.20;99.90;;;;;;5014476;28;20029;-68
2023/09/29 03:36:14;;;;;;;5.30;2.13;;;20.20;99.90;;;;;;5014384;28;20034;-68
2023/09/29 03:38:45;;;;;;;8.55;2.50;;;20.20;99.90;;;;;;5014607;28;20018;-67
2023/09/29 03:41:10;;;;;;;6.80;1.90;;;20.20;99.90;;;;;;5014807;28;20495;-68
2023/09/29 03:43:36;;;;;;;7.40;2.45;;;20.20;99.90;;;;;;5014473;28;20029;-68
2023/09/29 03:46:04;;;;;;;7.05;2.55;;;20.20;99.90;;;;;;5014756;28;20479;-67
2023/09/29 03:48:30;;;;;;;5.47;2.35;;;20.20;99.90;;;;;;5014287;28;20034;-69
2023/09/29 03:50:57;;;;;;;6.35;2.08;;;20.20;99.90;;;;;;5014230;28;20087;-67
2023/09/29 03:53:23;;;;;;;7.07;2.40;;;20.30;99.90;;;;;;5014302;28;20160;-67
2023/09/29 03:55:48;;;;;;;4.95;2.40;;;20.30;99.90;;;;;;5014415;28;20113;-67
2023/09/29 03:58:14;;;;;;;5.47;2.00;;;20.30;99.90;;;;;;5014188;28;20022;-67
2023/09/29 04:00:41;;;;;;;4.68;2.22;;;20.30;99.90;;;;;;5014355;28;20475;-67
2023/09/29 04:03:07;;;;;;;5.53;2.70;;;20.30;99.90;;;;;;5014289;28;20026;-69
2023/09/29 04:05:32;;;;;;;14.75;2.75;;;20.30;99.90;;;;;;4976234;28;1102138;-69
2023/09/29 04:07:58;;;;;;;6.60;2.20;;;20.30;99.90;;;;;;5015086;28;20073;-67
2023/09/29 04:10:24;;;;;;;8.55;2.67;;;20.40;99.90;;;;;;5015133;28;20080;-68
2023/09/29 04:12:49;;;;;;;8.70;2.67;;;20.40;99.90;;;;;;5014984;28;20079;-68
2023/09/29 04:15:16;;;;;;;5.85;2.55;;;20.40;99.90;;;;;;5015097;28;20034;-70
2023/09/29 04:17:41;;;;;;;4.53;2.13;;;20.40;99.90;;;;;;5015217;28;20018;-67
2023/09/29 04:20:08;;;;;;;10.90;2.63;;;20.40;99.90;;;;;;5014596;28;20049;-69
2023/09/29 04:22:35;;;;;;;8.25;2.85;;;20.40;99.90;;;;;;5014982;28;20014;-68
2023/09/29 04:25:01;;;;;;;2.83;2.20;;;20.40;99.90;;;;;;5014776;28;20036;-68
2023/09/29 04:27:27;;;;;;;5.22;1.85;;;20.40;99.90;;;;;;5014968;28;20073;-68
2023/09/29 04:29:53;;;;;;;5.60;2.08;;;20.50;99.90;;;;;;5014717;28;20033;-67
2023/09/29 04:32:18;;;;;;;5.75;2.35;;;20.50;99.90;;;;;;5014779;28;20018;-68
2023/09/29 04:34:45;;;;;;;8.90;2.17;;;20.50;99.90;;;;;;5000222;28;20093;-68
2023/09/29 04:37:10;;;;;;;5.38;2.53;;;20.50;99.90;;;;;;5014318;28;20117;-67
2023/09/29 04:39:37;;;;;;;5.53;1.88;;;20.50;99.90;;;;;;5013018;28;20106;-68
2023/09/29 04:42:07;;;;;;;3.55;2.10;;;20.50;99.90;;;;;;5009205;28;20044;-67
2023/09/29 04:44:33;;;;;;;5.53;1.90;;;20.50;99.90;;;;;;5014183;28;20025;-67
2023/09/29 04:46:59;;;;;;;4.72;2.05;;;20.50;99.90;;;;;;5014792;28;20030;-71
2023/09/29 04:49:25;;;;;;;4.15;2.10;;;20.50;99.90;;;;;;5027878;28;20033;-69
2023/09/29 04:51:51;;;;;;;5.10;2.40;;;20.50;99.90;;;;;;5001575;28;20412;-69
2023/09/29 04:54:17;;;;;;;3.75;1.85;;;20.50;99.90;;;;;;5014366;28;20026;-69
2023/09/29 04:56:42;;;;;;;4.97;2.17;;;20.50;99.90;;;;;;5014184;28;20041;-68
2023/09/29 04:59:08;;;;;;;5.15;2.40;;;20.50;99.90;;;;;;5014501;28;20029;-68
2023/09/29 05:01:36;;;;;;;6.38;2.08;;;20.50;99.90;;;;;;5009357;28;20035;-69
2023/09/29 05:04:02;;;;;;;5.22;2.15;;;20.50;99.90;;;;;;4997759;28;20022;-69
2023/09/29 05:06:28;;;;;;;5.95;2.35;;;20.50;99.90;;;;;;5011497;28;20157;-68
2023/09/29 05:08:54;;;;;;;4.35;2.33;;;20.50;99.90;;;;;;5014226;28;20080;-68
2023/09/29 05:11:23;;;;;;;5.22;2.60;;;20.50;99.90;;;;;;5007223;28;20029;-68
2023/09/29 05:13:50;;;;;;;7.25;2.45;;;20.50;99.90;;;;;;5009613;28;20029;-69
2023/09/29 05:16:16;;;;;;;4.45;2.50;;;20.50;99.90;;;;;;5012894;28;20034;-68
2023/09/29 05:18:43;;;;;;;4.28;2.35;;;20.50;99.90;;;;;;5013662;28;20026;-68
2023/09/29 05:21:10;;;;;;;5.57;2.97;;;20.50;99.90;;;;;;4999676;28;20475;-73
2023/09/29 05:23:39;;;;;;;6.07;2.60;;;20.50;99.90;;;;;;5009079;28;20479;-67
2023/09/29 05:26:07;;;;;;;4.93;2.20;;;20.50;99.90;;;;;;4993992;28;20480;-67
2023/09/29 05:28:37;;;;;;;6.15;2.92;;;20.50;99.90;;;;;;5002591;28;20076;-69
2023/09/29 05:31:03;;;;;;;7.88;2.05;;;20.40;99.90;;;;;;5006107;28;20097;-69
2023/09/29 05:33:30;;;;;;;3.67;1.77;;;20.40;99.90;;;;;;5012613;28;20029;-67
2023/09/29 05:35:55;;;;;;;3.72;1.67;;;20.50;99.90;;;;;;5004426;28;20046;-68
2023/09/29 05:38:21;;;;;;;5.05;1.95;;;20.50;99.90;;;;;;5008903;28;20022;-68
2023/09/29 05:40:47;;;;;;;3.38;1.95;;;20.60;99.90;;;;;;5002954;28;20080;-68
2023/09/29 05:43:13;;;;;;;3.35;1.77;;;20.70;99.90;;;;;;5012157;28;20459;-68
2023/09/29 05:45:39;;;;;;;4.95;1.80;;;20.70;99.90;;;;;;5003150;28;20029;-68
2023/09/29 05:48:06;;;;;;;6.57;2.42;;;20.70;99.90;;;;;;5009453;28;20037;-67
2023/09/29 05:50:35;;;;;;;3.33;1.60;;;20.70;99.90;;;;;;5003786;28;20582;-69
2023/09/29 05:53:02;;;;;;;3.15;1.80;;;20.70;99.90;;;;;;4998568;28;20511;-69
2023/09/29 05:55:28;;;;;;;4.40;1.65;;;20.70;99.90;;;;;;4993526;28;20034;-68
2023/09/29 05:57:54;;;;;;;3.38;1.95;;;20.70;99.90;;;;;;4999519;28;20048;-70
2023/09/29 06:00:20;;;;;;;7.28;2.70;;;20.70;99.90;;;;;;4999504;28;20081;-67
2023/09/29 06:02:47;;;;;;;5.47;1.90;;;20.70;99.90;;;;;;5004781;28;20111;-67
2023/09/29 06:05:13;;;;;;;4.78;2.10;;;20.70;99.90;;;;;;4998940;28;20037;-68
2023/09/29 06:07:39;;;;;;;3.88;2.17;;;20.70;99.90;;;;;;4996639;28;20488;-68
2023/09/29 06:10:06;;;;;;;3.80;1.63;;;20.70;99.90;;;;;;4997577;28;20030;-68
2023/09/29 06:12:32;;;;;;;3.10;1.85;;;20.70;99.90;;;;;;5000446;28;20109;-66
2023/09/29 06:14:58;;;;;;;4.95;1.77;;;20.70;99.90;;;;;;5004889;28;20553;-67
2023/09/29 06:17:23;;;;;;;4.05;2.33;;;20.70;99.90;;;;;;4996238;28;20160;-69
2023/09/29 06:19:50;;;;;;;4.65;2.47;;;20.60;99.90;;;;;;5000266;28;20057;-66
2023/09/29 06:22:15;;;;;;;5.50;2.90;;;20.70;99.90;;;;;;5002289;28;20035;-68
2023/09/29 06:24:43;;;;;;;6.30;3.00;;;20.70;99.90;;;;;;4997725;28;20038;-69
2023/09/29 06:27:09;;;;;;;6.38;3.05;;;20.70;99.90;;;;;;5003360;28;20064;-66
2023/09/29 06:29:35;;;;;;;4.03;3.15;;;20.70;99.90;;;;;;4991436;28;20058;-69
2023/09/29 06:32:01;;;;;;;5.90;2.70;;;20.70;99.90;;;;;;5002957;28;20428;-67
2023/09/29 06:34:27;;;;;;;9.48;3.53;;;20.70;99.90;;;;;;5001050;28;20475;-66
2023/09/29 06:36:53;;;;;;;11.35;3.53;;;20.70;99.90;;;;;;5006108;28;20053;-65
2023/09/29 06:39:19;;;;;;;7.00;3.00;;;20.70;99.90;;;;;;4998105;28;20050;-68
2023/09/29 06:41:44;;;;;;;11.32;3.10;;;20.70;99.90;;;;;;4993005;28;20084;-67
2023/09/29 06:44:10;;;;;;;11.13;3.22;;;20.70;99.90;;;;;;5004773;28;20483;-66
2023/09/29 06:46:35;;;;;;;8.55;2.40;;;20.70;99.90;;;;;;5006126;28;20408;-69
2023/09/29 06:49:01;;;;;;;5.60;2.33;;;20.80;99.90;;;;;;5005456;28;20018;-66
2023/09/29 06:51:27;;;;;;;6.82;2.95;;;20.70;99.90;;;;;;5004160;28;20789;-68
2023/09/29 06:53:53;;;;;;;8.85;2.22;;;20.80;99.90;;;;;;4999486;28;20108;-68
2023/09/29 06:56:19;;;;;;;11.50;2.45;;;20.80;99.90;;;;;;5003317;28;20096;-68
2023/09/29 06:58:46;;;;;;;9.00;2.53;;;20.80;99.90;;;;;;5009104;28;20010;-67
2023/09/29 07:01:12;;;;;;;9.48;2.78;;;20.80;99.90;;;;;;5007658;28;20149;-68
2023/09/29 07:03:38;;;;;;;14.30;3.28;;;20.80;99.90;;;;;;5011742;28;20057;-69
2023/09/29 07:06:04;;;;;;;8.13;3.03;;;20.80;99.90;;;;;;5010360;28;20064;-65
2023/09/29 07:08:30;;;;;;;7.93;2.90;;;20.80;99.90;;;;;;5011732;28;20513;-66
2023/09/29 07:10:56;;;;;;;6.82;2.38;;;20.80;99.90;;;;;;5002677;28;20033;-67
2023/09/29 07:13:21;;;;;;;8.07;2.47;;;20.80;99.90;;;;;;5008187;28;20731;-65
2023/09/29 07:15:47;;;;;;;9.90;2.40;;;20.80;99.90;;;;;;5014367;28;20069;-66
2023/09/29 07:18:13;;;;;;;5.82;2.30;;;20.80;99.90;;;;;;5011266;28;20429;-65
2023/09/29 07:20:39;;;;;;;6.70;2.53;;;20.80;99.90;;;;;;5015531;28;20475;-66
2023/09/29 07:23:08;;;;;;;8.77;3.08;;;20.80;99.90;;;;;;5009870;28;20117;-65
2023/09/29 07:25:37;;;;;;;9.43;2.50;;;20.80;99.90;;;;;;5011235;28;20087;-65
2023/09/29 07:28:13;;;;;;;5.65;2.47;;;20.80;99.90;;;;;;5013576;28;20018;-69
2023/09/29 07:30:41;;;;;;;5.30;2.03;;;20.90;99.90;;;;;;5014948;28;20024;-67
2023/09/29 07:33:07;;;;;;;9.48;2.58;;;20.80;99.90;;;;;;5017589;28;20022;-66
2023/09/29 07:35:32;;;;;;;4.32;2.22;;;20.90;99.90;;;;;;5010948;28;20379;-69
2023/09/29 07:38:00;;;;;;;7.05;2.30;;;20.80;99.90;;;;;;5016493;28;20042;-69
2023/09/29 07:40:26;;;;;;;8.40;2.67;;;20.90;99.90;;;;;;5002309;28;20037;-73
2023/09/29 07:42:52;;;;;;;10.57;2.25;;;20.90;99.90;;;;;;5004343;28;20027;-74
2023/09/29 07:45:19;;;;;;;8.75;2.40;;;20.80;99.90;;;;;;4994805;28;20113;-69
2023/09/29 07:47:45;;;;;;;5.20;2.22;;;20.90;99.90;;;;;;5004355;28;20557;-67
2023/09/29 07:50:11;;;;;;;8.63;2.60;;;20.90;99.90;;;;;;5006528;28;20069;-75
2023/09/29 07:52:40;;;;;;;12.52;2.67;;;20.90;99.90;;;;;;5002064;28;20148;-73
2023/09/29 07:55:15;;;;;;;6.50;2.58;;;20.90;99.90;;;;;;5006220;28;20034;-67
2023/09/29 07:57:40;;;;;;;10.43;2.92;;;20.90;99.90;;;;;;5024294;28;20116;-70
2023/09/29 08:00:10;;;;;;;9.15;2.75;;;20.90;99.90;;;;;;5013798;28;20109;-71
2023/09/29 08:02:35;;;;;;;7.13;2.50;;;21.00;99.90;;;;;;4995431;28;20117;-67
2023/09/29 08:05:02;;;;;;;10.93;2.83;;;20.90;99.90;;;;;;5000734;28;20117;-69
2023/09/29 08:07:28;;;;;;;5.47;2.95;;;21.00;99.90;;;;;;5004861;28;20500;-71
2023/09/29 08:09:53;;;;;;;6.43;2.58;;;21.00;99.90;;;;;;5011919;28;20029;-73
2023/09/29 08:12:20;;;;;;;6.28;2.30;;;21.00;99.90;;;;;;5012636;28;20370;-72
2023/09/29 08:14:47;;;;;;;7.30;2.03;;;21.00;99.90;;;;;;5013121;28;20116;-67
2023/09/29 08:17:13;;;;;;;7.75;3.10;;;21.00;99.90;;;;;;5001089;28;20109;-68
2023/09/29 08:19:39;;;;;;;5.53;2.30;;;21.00;99.90;;;;;;5010219;28;20104;-68
2023/09/29 08:22:05;;;;;;;9.65;2.45;;;21.00;99.90;;;;;;5002954;28;20034;-67
2023/09/29 08:24:32;;;;;;;6.85;2.53;;;21.00;99.90;;;;;;5009052;28;20026;-67
2023/09/29 08:26:58;;;;;;;8.07;2.40;;;21.00;99.90;;;;;;4999669;28;20026;-66
2023/09/29 08:29:24;;;;;;;6.43;2.38;;;21.00;99.90;;;;;;4995991;28;20078;-67
2023/09/29 08:31:50;;;;;;;5.63;2.45;;;21.10;99.90;;;;;;4998606;28;20129;-69
2023/09/29 08:34:15;;;;;;;7.03;2.55;;;21.10;99.90;;;;;;4994483;28;20033;-66
2023/09/29 08:36:41;;;;;;;7.18;2.70;;;21.00;99.90;;;;;;5004841;28;20095;-67
2023/09/29 08:39:07;;;;;;;8.70;2.38;;;21.10;99.90;;;;;;5008611;28;20018;-70
2023/09/29 08:41:35;;;;;;;3.95;1.98;;;21.10;99.90;;;;;;5014018;28;20538;-75
2023/09/29 08:44:06;;;;;;;4.65;2.30;;;21.10;99.90;;;;;;5010932;28;20022;-67
2023/09/29 08:46:34;;;;;;;7.82;2.30;;;21.10;99.90;;;;;;4994898;28;20033;-67
2023/09/29 08:49:03;;;;;;;7.93;2.47;;;21.10;99.90;;;;;;5002365;28;20026;-74
2023/09/29 08:51:30;;;;;;;6.65;2.53;;;21.10;99.90;;;;;;5005529;28;20105;-70
2023/09/29 08:53:58;;;;;;;4.07;2.28;;;21.10;99.90;;;;;;5009373;28;20033;-70
2023/09/29 08:56:24;;;;;;;4.38;2.63;;;21.20;99.90;;;;;;5009660;28;20120;-66
2023/09/29 08:58:50;;;;;;;3.75;2.30;;;21.10;99.90;;;;;;5003833;28;20114;-71
2023/09/29 09:01:16;;;;;;;8.43;2.22;;;21.20;99.90;;;;;;5006852;28;20037;-76
2023/09/29 09:03:41;;;;;;;8.15;2.72;;;21.20;99.90;;;;;;5012862;28;20075;-68
2023/09/29 09:06:22;;;;;;;6.50;2.38;;;21.20;99.90;;;;;;5009775;28;20030;-69
2023/09/29 09:08:50;;;;;;;15.30;2.60;;;21.20;99.90;;;;;;5001323;28;20066;-68
2023/09/29 09:11:16;;;;;;;4.88;2.03;;;21.30;99.90;;;;;;4992627;28;20057;-66
2023/09/29 09:13:41;;;;;;;4.43;1.48;;;21.40;99.90;;;;;;4994082;28;20062;-66
2023/09/29 09:16:07;;;;;;;3.55;2.08;;;21.40;99.90;;;;;;5003809;28;20041;-68
2023/09/29 09:18:33;;;;;;;5.55;2.25;;;21.50;99.90;;;;;;4994239;28;20030;-69
2023/09/29 09:20:58;;;;;;;4.72;1.55;;;21.50;99.90;;;;;;4999067;28;20071;-72
2023/09/29 09:23:24;;;;;;;6.10;2.25;;;21.50;99.90;;;;;;4994416;28;20030;-73
2023/09/29 09:25:50;;;;;;;5.55;1.83;;;21.50;99.90;;;;;;4996277;28;20030;-67
2023/09/29 09:28:19;;;;;;;4.65;1.92;;;21.50;99.90;;;;;;5003870;28;20105;-68
2023/09/29 09:30:47;;;;;;;3.70;2.00;;;21.40;99.90;;;;;;4998216;28;20168;-69
2023/09/29 09:33:21;;;;;;;7.28;2.67;;;21.40;99.90;;;;;;5007401;28;20037;-71
2023/09/29 09:35:48;;;;;;;4.45;1.90;;;21.40;99.90;;;;;;5011445;28;20041;-76
2023/09/29 09:38:14;;;;;;;8.07;2.35;;;21.40;99.90;;;;;;5011740;28;20026;-72
2023/09/29 09:40:40;;;;;;;3.05;1.75;;;21.40;99.90;;;;;;4998871;28;20430;-72
2023/09/29 09:43:07;;;;;;;6.40;1.77;;;21.40;99.90;;;;;;4995289;28;20036;-69
2023/09/29 09:45:40;;;;;;;3.60;1.90;;;21.40;99.90;;;;;;4998519;28;20452;-72
2023/09/29 09:48:08;;;;;;;5.10;1.65;;;21.40;99.90;;;;;;4998112;28;20061;-75
2023/09/29 09:50:36;;;;;;;3.72;1.90;;;21.40;99.90;;;;;;5008510;28;20030;-74
2023/09/29 09:53:05;;;;;;;4.80;1.67;;;21.40;99.90;;;;;;5003545;28;20026;-75
2023/09/29 09:55:39;;;;;;;5.15;2.28;;;21.40;99.90;;;;;;5006366;28;20100;-72
2023/09/29 09:58:09;;;;;;;6.22;2.05;;;21.40;99.90;;;;;;5025789;28;20038;-71
2023/09/29 10:00:38;;;;;;;3.25;1.75;;;21.40;99.90;;;;;;4999709;28;20029;-70
2023/09/29 10:03:11;;;;;;;4.55;1.80;;;21.40;99.90;;;;;;5011371;28;20026;-70
2023/09/29 10:05:40;;;;;;;5.45;1.70;;;21.40;99.90;;;;;;5003827;28;20535;-69
2023/09/29 10:08:07;;;;;;;6.35;2.38;;;21.40;99.90;;;;;;5010462;28;20034;-68
2023/09/29 10:10:36;;;;;;;4.65;1.52;;;21.40;99.90;;;;;;4993802;28;20053;-69
2023/09/29 10:13:03;;;;;;;6.55;2.10;;;21.40;99.90;;;;;;4993044;28;20026;-68
2023/09/29 10:15:29;;;;;;;7.63;2.30;;;21.40;99.90;;;;;;5010990;28;20025;-69
2023/09/29 10:17:59;;;;;;;4.82;1.70;;;21.40;99.90;;;;;;4995646;28;20038;-69
2023/09/29 10:20:26;;;;;;;6.63;1.67;;;21.50;99.90;;;;;;5003342;28;20491;-68
2023/09/29 10:23:08;;;;;;;5.20;1.95;;;21.50;99.90;;;;;;5011303;28;20022;-76
2023/09/29 10:25:38;;;;;;;6.97;1.90;;;21.50;99.90;;;;;;5000811;28;20057;-69
2023/09/29 10:28:08;;;;;;;5.28;2.20;;;21.50;99.90;;;;;;5004821;28;20018;-75
2023/09/29 10:30:35;;;;;;;4.70;2.03;;;21.50;99.90;;;;;;4999033;28;20030;-74
2023/09/29 10:33:11;;;;;;;3.55;1.70;;;21.50;99.90;;;;;;5005168;28;20022;-74
2023/09/29 10:35:47;;;;;;;5.28;1.58;;;21.50;99.90;;;;;;5005370;28;20030;-69
2023/09/29 10:38:31;;;;;;;4.85;2.30;;;21.50;99.90;;;;;;4999043;28;20037;-67
2023/09/29 10:41:00;;;;;;;4.45;2.00;;;21.50;99.90;;;;;;4997641;28;20018;-67
2023/09/29 10:43:26;;;;;;;5.13;1.75;;;21.50;99.90;;;;;;5003604;28;20489;-68
2023/09/29 10:45:52;;;;;;;3.72;1.75;;;21.50;99.90;;;;;;5012015;28;20046;-68
2023/09/29 10:48:21;;;;;;;3.10;1.40;;;21.50;99.90;;;;;;5004504;28;20022;-67
2023/09/29 10:50:51;;;;;;;7.28;1.85;;;21.50;99.90;;;;;;5007123;28;20026;-73
2023/09/29 10:53:23;;;;;;;5.78;1.83;;;21.50;99.90;;;;;;4999641;28;20113;-71
2023/09/29 10:55:52;;;;;;;3.97;1.52;;;21.60;99.90;;;;;;5000652;28;20042;-67
2023/09/29 10:58:19;;;;;;;6.10;1.60;;;21.60;99.90;;;;;;5007346;28;20482;-68
2023/09/29 11:00:47;;;;;;;2.55;1.42;;;21.60;99.90;;;;;;5009517;28;20076;-69
2023/09/29 11:03:15;;;;;;;3.25;1.60;;;21.60;99.90;;;;;;5001694;28;20046;-70
2023/09/29 11:05:54;;;;;;;3.45;2.03;;;21.60;99.90;;;;;;5006887;28;20042;-68
2023/09/29 11:08:34;;;;;;;3.55;1.25;;;21.60;99.90;;;;;;5007977;28;20062;-67
2023/09/29 11:11:04;;;;;;;3.53;1.70;;;21.60;99.90;;;;;;5004180;28;20045;-70
2023/09/29 11:13:31;;;;;;;8.25;2.45;;;21.60;99.90;;;;;;5009685;28;20137;-66
2023/09/29 11:15:58;;;;;;;4.43;2.17;;;21.60;99.90;;;;;;5003633;28;20031;-66
2023/09/29 11:18:33;;;;;;;7.97;3.42;;;21.60;99.90;;;;;;5010913;28;20029;-66
2023/09/29 11:21:00;;;;;;;4.90;1.42;;;21.70;99.90;;;;;;5009658;28;20026;-67
2023/09/29 11:23:28;;;;;;;5.80;2.10;;;21.60;99.90;;;;;;5010672;28;20034;-67
2023/09/29 11:25:58;;;;;;;5.18;1.70;;;21.70;99.90;;;;;;5011980;28;20022;-67
2023/09/29 11:28:26;;;;;;;5.80;1.85;;;21.70;99.90;;;;;;5005142;28;20026;-67
2023/09/29 11:30:52;;;;;;;4.38;1.30;;;21.60;99.90;;;;;;4999765;28;20117;-67
2023/09/29 11:33:19;;;;;;;4.63;1.50;;;21.70;99.90;;;;;;4996881;28;20372;-67
2023/09/29 11:35:45;;;;;;;4.57;1.60;;;21.70;99.90;;;;;;5014445;28;20117;-66
2023/09/29 11:38:24;;;;;;;5.28;1.13;;;21.70;99.90;;;;;;5012812;28;20083;-71
2023/09/29 11:40:50;;;;;;;5.50;1.20;;;21.70;99.90;;;;;;5010488;28;20029;-66
2023/09/29 11:43:17;;;;;;;5.30;0.95;;;21.70;99.90;;;;;;5013904;28;20076;-75
2023/09/29 11:45:43;;;;;;;6.07;1.15;;;21.70;99.90;;;;;;5010230;28;20442;-68
2023/09/29 11:48:09;;;;;;;3.17;0.73;;;21.70;99.90;;;;;;5011417;28;20617;-67
2023/09/29 11:50:35;;;;;;;2.05;0.52;;;21.70;99.90;;;;;;4995637;28;20054;-68
2023/09/29 11:53:06;;;;;;;3.65;0.88;;;21.70;99.90;;;;;;4997630;28;20571;-67
2023/09/29 11:55:38;;;;;;;5.75;0.55;;;21.70;99.90;;;;;;5002004;28;20038;-67
2023/09/29 11:58:04;;;;;;;4.18;0.75;;;21.70;99.90;;;;;;5006392;28;20064;-67
2023/09/29 12:00:30;;;;;;;3.15;0.80;;;21.70;99.90;;;;;;5006065;28;20018;-68
2023/09/29 12:02:55;;;;;;;3.95;0.90;;;21.70;99.90;;;;;;5002661;28;20029;-67
2023/09/29 12:05:21;;;;;;;6.28;0.85;;;21.70;99.90;;;;;;4998317;28;20041;-67
2023/09/29 12:07:47;;;;;;;5.40;1.00;;;21.70;99.90;;;;;;4999398;28;20033;-67
2023/09/29 12:10:15;;;;;;;4.05;1.02;;;21.60;99.90;;;;;;5006532;28;20026;-67
2023/09/29 12:12:40;;;;;;;3.03;0.93;;;21.70;99.90;;;;;;4998838;28;20078;-66
2023/09/29 12:15:08;;;;;;;2.35;1.00;;;21.70;99.90;;;;;;5012591;28;20420;-68
2023/09/29 12:17:34;;;;;;;7.03;1.38;;;21.60;99.90;;;;;;5014216;28;20022;-66
2023/09/29 12:20:00;;;;;;;7.47;1.65;;;21.60;99.90;;;;;;5009767;28;20490;-67
2023/09/29 12:22:25;;;;;;;4.35;1.50;;;21.70;99.90;;;;;;4994808;28;20508;-68
2023/09/29 12:24:51;;;;;;;3.75;1.17;;;21.70;99.90;;;;;;5005443;28;20030;-67
2023/09/29 12:27:17;;;;;;;5.32;1.70;;;21.70;99.90;;;;;;5010255;28;20399;-73
2023/09/29 12:29:44;;;;;;;3.15;1.35;;;21.70;99.90;;;;;;5013163;28;20029;-67
2023/09/29 12:32:10;;;;;;;4.22;1.55;;;21.70;99.90;;;;;;5011911;28;20076;-66
2023/09/29 12:34:35;;;;;;;4.72;1.60;;;21.70;99.90;;;;;;5014262;28;20438;-67
2023/09/29 12:37:01;;;;;;;5.70;1.60;;;21.70;99.90;;;;;;5014267;28;20109;-66
2023/09/29 12:39:28;;;;;;;5.22;1.95;;;21.70;99.90;;;;;;5013588;28;20030;-66
2023/09/29 12:41:54;;;;;;;7.22;2.15;;;21.70;99.90;;;;;;5019783;28;20502;-66
2023/09/29 12:44:19;;;;;;;6.43;1.70;;;21.70;99.90;;;;;;5012784;28;20025;-69